sensor_id;sensor_type;location;lat;lon;timestamp;pressure;altitude;pressure_sealevel;temperature;humidity
6094;BME280;19964;42.060;24.700;2023-10-09T00:01:03;97831.41;;;21.35;50.76
6094;BME280;19964;42.060;24.700;2023-10-09T00:03:38;97835.03;;;21.39;50.76
6094;BME280;19964;42.060;24.700;2023-10-09T00:06:06;97828.78;;;21.35;50.94
6094;BME280;19964;42.060;24.700;2023-10-09T00:08:35;97824.84;;;21.32;50.95
6094;BME280;19964;42.060;24.700;2023-10-09T00:11:06;97837.97;;;21.37;50.94
6094;BME280;19964;42.060;24.700;2023-10-09T00:13:42;97828.50;;;21.17;51.83
6094;BME280;19964;42.060;24.700;2023-10-09T00:16:16;97837.19;;;21.18;51.47
6094;BME280;19964;42.060;24.700;2023-10-09T00:18:47;97836.09;;;21.19;51.69
6094;BME280;19964;42.060;24.700;2023-10-09T00:21:14;97837.44;;;21.16;51.71
6094;BME280;19964;42.060;24.700;2023-10-09T00:23:41;97833.19;;;21.20;51.73
6094;BME280;19964;42.060;24.700;2023-10-09T00:26:09;97831.91;;;21.18;51.87
6094;BME280;19964;42.060;24.700;2023-10-09T00:28:36;97817.00;;;21.08;52.28
6094;BME280;19964;42.060;24.700;2023-10-09T00:31:03;97822.22;;;21.13;52.17
6094;BME280;19964;42.060;24.700;2023-10-09T00:33:33;97811.00;;;21.03;52.60
6094;BME280;19964;42.060;24.700;2023-10-09T00:36:01;97813.09;;;20.82;52.87
6094;BME280;19964;42.060;24.700;2023-10-09T00:38:34;97817.16;;;20.93;52.91
6094;BME280;19964;42.060;24.700;2023-10-09T00:41:01;97818.59;;;20.86;53.34
6094;BME280;19964;42.060;24.700;2023-10-09T00:43:37;97811.25;;;20.83;53.36
6094;BME280;19964;42.060;24.700;2023-10-09T00:46:08;97747.53;;;20.38;53.51
6094;BME280;19964;42.060;24.700;2023-10-09T00:48:37;97823.44;;;20.79;53.17
6094;BME280;19964;42.060;24.700;2023-10-09T00:51:06;97836.31;;;20.80;53.27
6094;BME280;19964;42.060;24.700;2023-10-09T00:53:41;97832.09;;;20.79;53.56
6094;BME280;19964;42.060;24.700;2023-10-09T00:56:07;97837.22;;;20.71;53.88
6094;BME280;19964;42.060;24.700;2023-10-09T00:58:46;97836.50;;;20.65;54.07
6094;BME280;19964;42.060;24.700;2023-10-09T01:01:15;97837.72;;;20.73;53.77
6094;BME280;19964;42.060;24.700;2023-10-09T01:03:42;97842.13;;;20.77;53.91
6094;BME280;19964;42.060;24.700;2023-10-09T01:06:10;97846.34;;;20.78;54.03
6094;BME280;19964;42.060;24.700;2023-10-09T01:08:46;97847.03;;;20.65;54.43
6094;BME280;19964;42.060;24.700;2023-10-09T01:11:34;97845.00;;;20.28;55.57
6094;BME280;19964;42.060;24.700;2023-10-09T01:14:13;97853.38;;;20.07;55.99
6094;BME280;19964;42.060;24.700;2023-10-09T01:16:40;97856.81;;;20.02;56.01
6094;BME280;19964;42.060;24.700;2023-10-09T01:19:09;97872.25;;;19.80;57.04
6094;BME280;19964;42.060;24.700;2023-10-09T01:21:49;97875.34;;;19.87;57.06
6094;BME280;19964;42.060;24.700;2023-10-09T01:24:17;97879.34;;;19.80;57.06
6094;BME280;19964;42.060;24.700;2023-10-09T01:26:44;97876.91;;;19.88;57.39
6094;BME280;19964;42.060;24.700;2023-10-09T01:29:12;97878.25;;;19.86;57.47
6094;BME280;19964;42.060;24.700;2023-10-09T01:31:41;97885.38;;;19.85;57.17
6094;BME280;19964;42.060;24.700;2023-10-09T01:34:16;97879.84;;;19.82;57.10
6094;BME280;19964;42.060;24.700;2023-10-09T01:36:43;97876.69;;;19.80;57.53
6094;BME280;19964;42.060;24.700;2023-10-09T01:39:14;97884.34;;;19.76;57.64
6094;BME280;19964;42.060;24.700;2023-10-09T01:41:51;97884.19;;;19.68;58.04
6094;BME280;19964;42.060;24.700;2023-10-09T01:44:24;97888.00;;;19.46;59.16
6094;BME280;19964;42.060;24.700;2023-10-09T01:46:52;97885.66;;;19.30;59.41
6094;BME280;19964;42.060;24.700;2023-10-09T01:49:20;97892.50;;;19.36;59.40
6094;BME280;19964;42.060;24.700;2023-10-09T01:51:56;97889.09;;;19.30;59.61
6094;BME280;19964;42.060;24.700;2023-10-09T01:54:27;97889.88;;;19.31;60.03
6094;BME280;19964;42.060;24.700;2023-10-09T01:57:03;97896.00;;;19.11;60.47
6094;BME280;19964;42.060;24.700;2023-10-09T01:59:35;97894.41;;;19.15;60.35
6094;BME280;19964;42.060;24.700;2023-10-09T02:02:04;97896.56;;;18.98;61.15
6094;BME280;19964;42.060;24.700;2023-10-09T02:04:39;97903.41;;;18.99;61.48
6094;BME280;19964;42.060;24.700;2023-10-09T02:07:06;97912.53;;;19.12;61.17
6094;BME280;19964;42.060;24.700;2023-10-09T02:09:34;97911.81;;;18.96;61.62
6094;BME280;19964;42.060;24.700;2023-10-09T02:12:00;97906.06;;;18.84;62.00
6094;BME280;19964;42.060;24.700;2023-10-09T02:14:28;97919.19;;;18.84;62.14
6094;BME280;19964;42.060;24.700;2023-10-09T02:16:54;97917.09;;;18.86;62.25
6094;BME280;19964;42.060;24.700;2023-10-09T02:19:33;97919.44;;;18.93;61.94
6094;BME280;19964;42.060;24.700;2023-10-09T02:22:02;97926.56;;;18.87;62.16
6094;BME280;19964;42.060;24.700;2023-10-09T02:24:37;97939.44;;;18.74;62.16
6094;BME280;19964;42.060;24.700;2023-10-09T02:27:17;97940.44;;;18.93;61.60
6094;BME280;19964;42.060;24.700;2023-10-09T02:30:07;97948.06;;;18.84;62.04
6094;BME280;19964;42.060;24.700;2023-10-09T02:32:41;97952.78;;;18.97;62.08
6094;BME280;19964;42.060;24.700;2023-10-09T02:35:08;97959.13;;;18.71;63.40
6094;BME280;19964;42.060;24.700;2023-10-09T02:37:44;97960.97;;;18.35;64.18
6094;BME280;19964;42.060;24.700;2023-10-09T02:40:12;97998.16;;;17.25;66.62
6094;BME280;19964;42.060;24.700;2023-10-09T02:42:49;97981.94;;;16.81;69.04
6094;BME280;19964;42.060;24.700;2023-10-09T02:45:17;97988.34;;;16.64;70.05
6094;BME280;19964;42.060;24.700;2023-10-09T02:47:44;97993.72;;;16.47;71.41
6094;BME280;19964;42.060;24.700;2023-10-09T02:50:14;97995.25;;;16.43;72.20
6094;BME280;19964;42.060;24.700;2023-10-09T02:52:45;98006.06;;;16.25;73.28
6094;BME280;19964;42.060;24.700;2023-10-09T02:55:12;98001.31;;;15.95;73.27
6094;BME280;19964;42.060;24.700;2023-10-09T02:57:48;98018.59;;;15.70;74.21
6094;BME280;19964;42.060;24.700;2023-10-09T03:00:22;98030.16;;;15.57;72.58
6094;BME280;19964;42.060;24.700;2023-10-09T03:02:55;98038.94;;;15.30;72.35
6094;BME280;19964;42.060;24.700;2023-10-09T03:05:23;98031.53;;;15.05;73.35
6094;BME280;19964;42.060;24.700;2023-10-09T03:07:52;98035.09;;;14.99;74.05
6094;BME280;19964;42.060;24.700;2023-10-09T03:10:18;98034.00;;;14.95;73.98
6094;BME280;19964;42.060;24.700;2023-10-09T03:12:45;98033.44;;;14.93;73.40
6094;BME280;19964;42.060;24.700;2023-10-09T03:15:17;98044.38;;;14.73;72.86
6094;BME280;19964;42.060;24.700;2023-10-09T03:17:45;98030.44;;;14.51;72.86
6094;BME280;19964;42.060;24.700;2023-10-09T03:20:12;98026.81;;;14.52;72.95
6094;BME280;19964;42.060;24.700;2023-10-09T03:22:39;98036.63;;;14.45;73.18
6094;BME280;19964;42.060;24.700;2023-10-09T03:25:06;98034.56;;;14.47;73.65
6094;BME280;19964;42.060;24.700;2023-10-09T03:27:37;98030.31;;;14.41;74.65
6094;BME280;19964;42.060;24.700;2023-10-09T03:30:04;98032.34;;;14.56;73.63
6094;BME280;19964;42.060;24.700;2023-10-09T03:32:35;98030.63;;;14.45;73.39
6094;BME280;19964;42.060;24.700;2023-10-09T03:35:03;98050.50;;;14.34;72.12
6094;BME280;19964;42.060;24.700;2023-10-09T03:37:35;98055.72;;;14.06;72.14
6094;BME280;19964;42.060;24.700;2023-10-09T03:40:01;98055.53;;;13.96;72.37
6094;BME280;19964;42.060;24.700;2023-10-09T03:42:28;98050.94;;;14.03;72.45
6094;BME280;19964;42.060;24.700;2023-10-09T03:44:55;98057.59;;;14.10;70.75
6094;BME280;19964;42.060;24.700;2023-10-09T03:47:23;98070.13;;;13.97;70.97
6094;BME280;19964;42.060;24.700;2023-10-09T03:49:49;98066.38;;;13.93;71.03
6094;BME280;19964;42.060;24.700;2023-10-09T03:52:19;98071.84;;;13.91;70.81
6094;BME280;19964;42.060;24.700;2023-10-09T03:54:50;98083.88;;;13.81;70.79
6094;BME280;19964;42.060;24.700;2023-10-09T03:57:17;98091.69;;;13.69;71.28
6094;BME280;19964;42.060;24.700;2023-10-09T03:59:44;98086.63;;;13.63;71.60
6094;BME280;19964;42.060;24.700;2023-10-09T04:02:12;98093.66;;;13.62;71.94
6094;BME280;19964;42.060;24.700;2023-10-09T04:04:38;98098.16;;;13.67;72.12
6094;BME280;19964;42.060;24.700;2023-10-09T04:07:10;98090.94;;;13.57;72.18
6094;BME280;19964;42.060;24.700;2023-10-09T04:09:38;98100.66;;;13.62;72.43
6094;BME280;19964;42.060;24.700;2023-10-09T04:12:09;98110.06;;;13.63;72.67
6094;BME280;19964;42.060;24.700;2023-10-09T04:14:45;98111.53;;;13.70;73.23
6094;BME280;19964;42.060;24.700;2023-10-09T04:17:19;98108.00;;;13.76;74.18
6094;BME280;19964;42.060;24.700;2023-10-09T04:20:00;98113.50;;;13.91;74.84
6094;BME280;19964;42.060;24.700;2023-10-09T04:22:44;98123.31;;;14.12;72.18
6094;BME280;19964;42.060;24.700;2023-10-09T04:25:17;98115.19;;;13.97;71.37
6094;BME280;19964;42.060;24.700;2023-10-09T04:27:51;98121.88;;;13.93;71.56
6094;BME280;19964;42.060;24.700;2023-10-09T04:30:25;98119.59;;;13.97;72.15
6094;BME280;19964;42.060;24.700;2023-10-09T04:32:53;98112.88;;;14.12;71.83
6094;BME280;19964;42.060;24.700;2023-10-09T04:35:25;98108.31;;;14.31;71.60
6094;BME280;19964;42.060;24.700;2023-10-09T04:37:52;98119.16;;;14.40;71.24
6094;BME280;19964;42.060;24.700;2023-10-09T04:40:32;98127.97;;;13.99;71.79
6094;BME280;19964;42.060;24.700;2023-10-09T04:43:18;98132.66;;;13.85;71.15
6094;BME280;19964;42.060;24.700;2023-10-09T04:45:46;98131.13;;;13.73;71.35
6094;BME280;19964;42.060;24.700;2023-10-09T04:48:30;98129.84;;;13.64;71.47
6094;BME280;19964;42.060;24.700;2023-10-09T04:51:03;98137.34;;;13.49;71.94
6094;BME280;19964;42.060;24.700;2023-10-09T04:54:00;98130.56;;;13.48;72.11
6094;BME280;19964;42.060;24.700;2023-10-09T04:56:39;98150.47;;;13.54;71.95
6094;BME280;19964;42.060;24.700;2023-10-09T04:59:17;98143.94;;;13.39;72.74
6094;BME280;19964;42.060;24.700;2023-10-09T05:01:45;98150.03;;;13.33;72.53
6094;BME280;19964;42.060;24.700;2023-10-09T05:04:24;98155.09;;;13.28;72.63
6094;BME280;19964;42.060;24.700;2023-10-09T05:07:04;98162.72;;;13.30;72.94
6094;BME280;19964;42.060;24.700;2023-10-09T05:09:48;98156.25;;;13.32;72.15
6094;BME280;19964;42.060;24.700;2023-10-09T05:12:41;98164.50;;;13.29;71.77
6094;BME280;19964;42.060;24.700;2023-10-09T05:15:12;98174.00;;;13.12;71.79
6094;BME280;19964;42.060;24.700;2023-10-09T05:17:38;98170.91;;;13.04;71.99
6094;BME280;19964;42.060;24.700;2023-10-09T05:20:11;98172.88;;;13.20;71.66
6094;BME280;19964;42.060;24.700;2023-10-09T05:23:06;98168.81;;;13.59;70.58
6094;BME280;19964;42.060;24.700;2023-10-09T05:25:49;98173.22;;;13.81;69.07
6094;BME280;19964;42.060;24.700;2023-10-09T05:28:25;98180.69;;;13.78;69.43
6094;BME280;19964;42.060;24.700;2023-10-09T05:30:56;98185.56;;;13.63;70.60
6094;BME280;19964;42.060;24.700;2023-10-09T05:33:32;98186.72;;;13.55;69.80
6094;BME280;19964;42.060;24.700;2023-10-09T05:36:00;98195.94;;;13.16;70.39
6094;BME280;19964;42.060;24.700;2023-10-09T05:38:47;98201.16;;;13.16;69.46
6094;BME280;19964;42.060;24.700;2023-10-09T05:41:23;98120.19;;;12.42;69.46
6094;BME280;19964;42.060;24.700;2023-10-09T05:44:14;98223.72;;;12.75;69.72
6094;BME280;19964;42.060;24.700;2023-10-09T05:46:58;98232.22;;;12.82;69.18
6094;BME280;19964;42.060;24.700;2023-10-09T05:49:39;98228.66;;;12.65;69.25
6094;BME280;19964;42.060;24.700;2023-10-09T05:52:12;98223.78;;;12.68;69.13
6094;BME280;19964;42.060;24.700;2023-10-09T05:54:52;98231.13;;;12.60;69.02
6094;BME280;19964;42.060;24.700;2023-10-09T05:57:36;98237.09;;;12.60;68.63
6094;BME280;19964;42.060;24.700;2023-10-09T06:00:26;98248.03;;;12.80;67.71
6094;BME280;19964;42.060;24.700;2023-10-09T06:03:10;98257.56;;;12.86;66.62
6094;BME280;19964;42.060;24.700;2023-10-09T06:05:49;98261.19;;;12.85;66.51
6094;BME280;19964;42.060;24.700;2023-10-09T06:08:31;98270.78;;;12.85;65.74
6094;BME280;19964;42.060;24.700;2023-10-09T06:11:29;98267.91;;;12.75;65.33
6094;BME280;19964;42.060;24.700;2023-10-09T06:14:04;98266.25;;;12.62;65.85
6094;BME280;19964;42.060;24.700;2023-10-09T06:16:39;98280.41;;;12.66;66.03
6094;BME280;19964;42.060;24.700;2023-10-09T06:19:25;98280.63;;;12.83;65.33
6094;BME280;19964;42.060;24.700;2023-10-09T06:21:51;98286.53;;;12.90;65.92
6094;BME280;19964;42.060;24.700;2023-10-09T06:24:58;98289.25;;;13.13;64.53
6094;BME280;19964;42.060;24.700;2023-10-09T06:27:33;98296.88;;;13.26;63.74
6094;BME280;19964;42.060;24.700;2023-10-09T06:30:22;98299.78;;;13.18;63.98
6094;BME280;19964;42.060;24.700;2023-10-09T06:32:55;98328.50;;;13.11;63.22
6094;BME280;19964;42.060;24.700;2023-10-09T06:35:33;98340.41;;;13.01;62.99
6094;BME280;19964;42.060;24.700;2023-10-09T06:38:01;98344.84;;;12.82;63.28
6094;BME280;19964;42.060;24.700;2023-10-09T06:40:48;98346.69;;;12.93;62.81
6094;BME280;19964;42.060;24.700;2023-10-09T06:43:33;98349.91;;;12.77;62.67
6094;BME280;19964;42.060;24.700;2023-10-09T06:46:15;98356.91;;;12.95;62.93
6094;BME280;19964;42.060;24.700;2023-10-09T06:49:01;98353.06;;;12.61;63.27
6094;BME280;19964;42.060;24.700;2023-10-09T06:51:48;98361.88;;;12.78;63.28
6094;BME280;19964;42.060;24.700;2023-10-09T06:54:21;98370.13;;;12.75;62.59
6094;BME280;19964;42.060;24.700;2023-10-09T06:56:51;98368.53;;;12.92;62.43
6094;BME280;19964;42.060;24.700;2023-10-09T06:59:38;98379.00;;;12.86;62.31
6094;BME280;19964;42.060;24.700;2023-10-09T07:02:26;98376.91;;;12.94;62.69
6094;BME280;19964;42.060;24.700;2023-10-09T07:04:54;98270.47;;;12.09;62.15
6094;BME280;19964;42.060;24.700;2023-10-09T07:07:21;98387.41;;;13.06;62.13
6094;BME280;19964;42.060;24.700;2023-10-09T07:09:51;98388.03;;;13.19;61.92
6094;BME280;19964;42.060;24.700;2023-10-09T07:12:35;98386.75;;;13.40;61.21
6094;BME280;19964;42.060;24.700;2023-10-09T07:15:09;98390.44;;;13.51;61.37
6094;BME280;19964;42.060;24.700;2023-10-09T07:18:03;98367.34;;;13.24;61.74
6094;BME280;19964;42.060;24.700;2023-10-09T07:20:45;98388.75;;;13.56;61.35
6094;BME280;19964;42.060;24.700;2023-10-09T07:23:25;98392.69;;;13.77;60.37
6094;BME280;19964;42.060;24.700;2023-10-09T07:26:01;98386.34;;;13.84;60.54
6094;BME280;19964;42.060;24.700;2023-10-09T07:28:43;98393.31;;;14.13;59.65
6094;BME280;19964;42.060;24.700;2023-10-09T07:31:20;98374.03;;;14.03;59.48
6094;BME280;19964;42.060;24.700;2023-10-09T07:34:05;98390.59;;;14.20;58.63
6094;BME280;19964;42.060;24.700;2023-10-09T07:36:55;98401.41;;;14.35;59.01
6094;BME280;19964;42.060;24.700;2023-10-09T07:39:22;98398.03;;;14.05;59.15
6094;BME280;19964;42.060;24.700;2023-10-09T07:41:49;98407.56;;;14.11;59.04
6094;BME280;19964;42.060;24.700;2023-10-09T07:44:28;98409.06;;;14.18;58.99
6094;BME280;19964;42.060;24.700;2023-10-09T07:47:03;98410.53;;;14.26;58.77
6094;BME280;19964;42.060;24.700;2023-10-09T07:49:48;98313.47;;;13.55;58.36
6094;BME280;19964;42.060;24.700;2023-10-09T07:52:18;98409.28;;;14.17;59.07
6094;BME280;19964;42.060;24.700;2023-10-09T07:54:50;98401.50;;;14.28;58.23
6094;BME280;19964;42.060;24.700;2023-10-09T07:57:20;98396.75;;;14.49;57.44
6094;BME280;19964;42.060;24.700;2023-10-09T07:59:51;98406.50;;;14.53;57.91
6094;BME280;19964;42.060;24.700;2023-10-09T08:02:32;98405.25;;;14.67;56.20
6094;BME280;19964;42.060;24.700;2023-10-09T08:05:02;98405.25;;;14.67;55.95
6094;BME280;19964;42.060;24.700;2023-10-09T08:07:33;98408.28;;;14.87;55.91
6094;BME280;19964;42.060;24.700;2023-10-09T08:10:03;98304.03;;;14.53;55.96
6094;BME280;19964;42.060;24.700;2023-10-09T08:12:48;98390.69;;;15.34;54.82
6094;BME280;19964;42.060;24.700;2023-10-09T08:15:46;98402.06;;;15.84;54.40
6094;BME280;19964;42.060;24.700;2023-10-09T08:18:18;98395.22;;;16.28;52.54
6094;BME280;19964;42.060;24.700;2023-10-09T08:20:53;98386.03;;;16.80;51.14
6094;BME280;19964;42.060;24.700;2023-10-09T08:23:36;98398.25;;;17.40;50.68
6094;BME280;19964;42.060;24.700;2023-10-09T08:26:16;98406.22;;;17.98;49.24
6094;BME280;19964;42.060;24.700;2023-10-09T08:28:54;98317.06;;;16.91;50.15
6094;BME280;19964;42.060;24.700;2023-10-09T08:31:41;98406.13;;;17.88;50.58
6094;BME280;19964;42.060;24.700;2023-10-09T08:34:22;98412.66;;;18.17;49.26
6094;BME280;19964;42.060;24.700;2023-10-09T08:36:52;98408.09;;;18.76;49.17
6094;BME280;19964;42.060;24.700;2023-10-09T08:39:21;98397.63;;;18.08;49.49
6094;BME280;19964;42.060;24.700;2023-10-09T08:41:58;98396.47;;;17.94;49.69
6094;BME280;19964;42.060;24.700;2023-10-09T08:44:26;98387.84;;;18.72;49.23
6094;BME280;19964;42.060;24.700;2023-10-09T08:46:58;98374.13;;;18.59;48.70
6094;BME280;19964;42.060;24.700;2023-10-09T08:49:26;98390.19;;;19.30;47.33
6094;BME280;19964;42.060;24.700;2023-10-09T08:51:53;98389.56;;;19.85;47.44
6094;BME280;19964;42.060;24.700;2023-10-09T08:54:21;98389.81;;;19.83;48.47
6094;BME280;19964;42.060;24.700;2023-10-09T08:56:48;98392.47;;;20.28;45.88
6094;BME280;19964;42.060;24.700;2023-10-09T08:59:20;98399.81;;;20.36;46.43
6094;BME280;19964;42.060;24.700;2023-10-09T09:01:47;98358.78;;;19.90;47.24
6094;BME280;19964;42.060;24.700;2023-10-09T09:04:39;98365.88;;;19.90;46.98
6094;BME280;19964;42.060;24.700;2023-10-09T09:07:24;98381.13;;;19.68;46.79
6094;BME280;19964;42.060;24.700;2023-10-09T09:09:56;98377.72;;;19.87;48.85
6094;BME280;19964;42.060;24.700;2023-10-09T09:12:27;98354.28;;;20.41;46.85
6094;BME280;19964;42.060;24.700;2023-10-09T09:14:56;98372.84;;;20.90;46.89
6094;BME280;19964;42.060;24.700;2023-10-09T09:17:32;98364.47;;;20.73;44.59
6094;BME280;19964;42.060;24.700;2023-10-09T09:20:01;98354.28;;;20.41;45.54
6094;BME280;19964;42.060;24.700;2023-10-09T09:22:52;98366.41;;;20.12;45.51
6094;BME280;19964;42.060;24.700;2023-10-09T09:25:23;98365.09;;;20.39;46.60
6094;BME280;19964;42.060;24.700;2023-10-09T09:27:51;98353.63;;;20.79;45.07
6094;BME280;19964;42.060;24.700;2023-10-09T09:30:23;98353.28;;;21.16;44.91
6094;BME280;19964;42.060;24.700;2023-10-09T09:32:50;98340.16;;;20.96;44.40
6094;BME280;19964;42.060;24.700;2023-10-09T09:35:37;98344.38;;;21.46;44.04
6094;BME280;19964;42.060;24.700;2023-10-09T09:38:06;98349.81;;;21.59;43.47
6094;BME280;19964;42.060;24.700;2023-10-09T09:40:41;98346.59;;;21.72;42.31
6094;BME280;19964;42.060;24.700;2023-10-09T09:43:08;98353.56;;;21.09;43.54
6094;BME280;19964;42.060;24.700;2023-10-09T09:45:48;98353.50;;;21.19;44.23
6094;BME280;19964;42.060;24.700;2023-10-09T09:48:17;98341.69;;;21.12;43.49
6094;BME280;19964;42.060;24.700;2023-10-09T09:50:44;98327.50;;;21.03;43.99
6094;BME280;19964;42.060;24.700;2023-10-09T09:53:13;98316.88;;;21.18;43.29
6094;BME280;19964;42.060;24.700;2023-10-09T09:55:49;98320.50;;;21.66;42.42
6094;BME280;19964;42.060;24.700;2023-10-09T09:58:23;98324.97;;;20.73;43.36
6094;BME280;19964;42.060;24.700;2023-10-09T10:00:53;98325.75;;;20.73;44.56
6094;BME280;19964;42.060;24.700;2023-10-09T10:03:24;98328.28;;;21.03;45.05
6094;BME280;19964;42.060;24.700;2023-10-09T10:05:54;98300.34;;;21.80;44.14
6094;BME280;19964;42.060;24.700;2023-10-09T10:08:24;98300.09;;;21.43;43.20
6094;BME280;19964;42.060;24.700;2023-10-09T10:10:59;98310.84;;;21.90;43.10
6094;BME280;19964;42.060;24.700;2023-10-09T10:13:56;98305.81;;;22.46;41.14
6094;BME280;19964;42.060;24.700;2023-10-09T10:16:27;98267.88;;;21.51;41.39
6094;BME280;19964;42.060;24.700;2023-10-09T10:19:01;98289.50;;;21.53;42.85
6094;BME280;19964;42.060;24.700;2023-10-09T10:21:47;98264.47;;;21.84;42.06
6094;BME280;19964;42.060;24.700;2023-10-09T10:24:40;98285.53;;;21.50;42.36
6094;BME280;19964;42.060;24.700;2023-10-09T10:27:20;98281.38;;;20.95;43.02
6094;BME280;19964;42.060;24.700;2023-10-09T10:30:28;98266.00;;;20.69;43.80
6094;BME280;19964;42.060;24.700;2023-10-09T10:33:03;98178.25;;;20.09;45.45
6094;BME280;19964;42.060;24.700;2023-10-09T10:35:41;98252.00;;;21.56;43.69
6094;BME280;19964;42.060;24.700;2023-10-09T10:38:28;98248.69;;;21.40;42.92
6094;BME280;19964;42.060;24.700;2023-10-09T10:41:15;98246.97;;;21.25;43.24
6094;BME280;19964;42.060;24.700;2023-10-09T10:43:49;98242.09;;;21.71;42.13
6094;BME280;19964;42.060;24.700;2023-10-09T10:46:24;98238.25;;;21.92;42.46
6094;BME280;19964;42.060;24.700;2023-10-09T10:48:58;98244.97;;;21.46;42.81
6094;BME280;19964;42.060;24.700;2023-10-09T10:51:28;98231.59;;;21.38;44.26
6094;BME280;19964;42.060;24.700;2023-10-09T10:54:03;98227.22;;;21.57;43.70
6094;BME280;19964;42.060;24.700;2023-10-09T10:56:44;98225.38;;;21.86;41.73
6094;BME280;19964;42.060;24.700;2023-10-09T10:59:15;98235.19;;;21.18;42.10
6094;BME280;19964;42.060;24.700;2023-10-09T11:01:48;98222.59;;;21.72;44.08
6094;BME280;19964;42.060;24.700;2023-10-09T11:04:39;98230.91;;;22.13;41.07
6094;BME280;19964;42.060;24.700;2023-10-09T11:07:07;98225.00;;;21.97;42.10
6094;BME280;19964;42.060;24.700;2023-10-09T11:09:44;98221.25;;;22.03;41.56
6094;BME280;19964;42.060;24.700;2023-10-09T11:12:26;98219.25;;;22.38;40.87
6094;BME280;19964;42.060;24.700;2023-10-09T11:15:05;98198.88;;;21.39;41.35
6094;BME280;19964;42.060;24.700;2023-10-09T11:17:31;98191.28;;;20.93;41.99
6094;BME280;19964;42.060;24.700;2023-10-09T11:20:00;98189.88;;;21.45;42.22
6094;BME280;19964;42.060;24.700;2023-10-09T11:22:47;98187.16;;;21.83;41.25
6094;BME280;19964;42.060;24.700;2023-10-09T11:25:37;98182.94;;;22.06;43.14
6094;BME280;19964;42.060;24.700;2023-10-09T11:28:15;98182.06;;;22.34;40.65
6094;BME280;19964;42.060;24.700;2023-10-09T11:30:54;98178.44;;;21.83;41.09
6094;BME280;19964;42.060;24.700;2023-10-09T11:33:22;98171.38;;;21.73;41.58
6094;BME280;19964;42.060;24.700;2023-10-09T11:35:55;98170.09;;;21.99;42.58
6094;BME280;19964;42.060;24.700;2023-10-09T11:38:22;98158.59;;;21.33;42.74
6094;BME280;19964;42.060;24.700;2023-10-09T11:40:49;98160.56;;;21.51;43.13
6094;BME280;19964;42.060;24.700;2023-10-09T11:46:24;98146.72;;;20.63;42.69
6094;BME280;19964;42.060;24.700;2023-10-09T11:49:05;98136.34;;;21.44;44.46
6094;BME280;19964;42.060;24.700;2023-10-09T11:51:50;98124.34;;;21.57;42.03
6094;BME280;19964;42.060;24.700;2023-10-09T11:54:50;98126.03;;;21.19;41.72
6094;BME280;19964;42.060;24.700;2023-10-09T11:57:15;98116.16;;;21.01;42.34
6094;BME280;19964;42.060;24.700;2023-10-09T11:59:42;98116.13;;;21.35;42.94
6094;BME280;19964;42.060;24.700;2023-10-09T12:02:11;98110.13;;;21.29;42.49
6094;BME280;19964;42.060;24.700;2023-10-09T12:04:37;98119.19;;;20.84;43.22
6094;BME280;19964;42.060;24.700;2023-10-09T12:07:07;98122.28;;;20.53;43.11
6094;BME280;19964;42.060;24.700;2023-10-09T12:09:35;98112.41;;;20.73;43.77
6094;BME280;19964;42.060;24.700;2023-10-09T12:12:02;98104.56;;;21.02;43.50
6094;BME280;19964;42.060;24.700;2023-10-09T12:14:29;98110.91;;;20.62;43.30
6094;BME280;19964;42.060;24.700;2023-10-09T12:16:59;98106.75;;;20.90;44.11
6094;BME280;19964;42.060;24.700;2023-10-09T12:19:32;98108.00;;;21.02;42.95
6094;BME280;19964;42.060;24.700;2023-10-09T12:21:59;98105.34;;;20.69;43.24
6094;BME280;19964;42.060;24.700;2023-10-09T12:24:26;98103.91;;;21.20;43.34
6094;BME280;19964;42.060;24.700;2023-10-09T12:26:54;98090.84;;;21.57;43.15
6094;BME280;19964;42.060;24.700;2023-10-09T12:29:20;98090.00;;;21.38;41.43
6094;BME280;19964;42.060;24.700;2023-10-09T12:31:47;98082.09;;;21.85;42.18
6094;BME280;19964;42.060;24.700;2023-10-09T12:34:14;98073.56;;;21.70;41.10
6094;BME280;19964;42.060;24.700;2023-10-09T12:36:44;98083.72;;;21.58;42.07
6094;BME280;19964;42.060;24.700;2023-10-09T12:39:11;98078.56;;;21.71;40.88
6094;BME280;19964;42.060;24.700;2023-10-09T12:41:43;98072.53;;;21.42;43.31
6094;BME280;19964;42.060;24.700;2023-10-09T12:44:09;98073.63;;;21.65;41.00
6094;BME280;19964;42.060;24.700;2023-10-09T12:46:40;98069.13;;;21.65;42.23
6094;BME280;19964;42.060;24.700;2023-10-09T12:49:06;98058.25;;;21.95;41.28
6094;BME280;19964;42.060;24.700;2023-10-09T12:51:33;98061.38;;;21.97;40.38
6094;BME280;19964;42.060;24.700;2023-10-09T12:54:01;98054.19;;;22.03;40.36
6094;BME280;19964;42.060;24.700;2023-10-09T12:56:27;98042.59;;;21.33;40.51
6094;BME280;19964;42.060;24.700;2023-10-09T12:59:02;98035.09;;;21.45;42.49
6094;BME280;19964;42.060;24.700;2023-10-09T13:01:30;98041.63;;;21.48;40.99
6094;BME280;19964;42.060;24.700;2023-10-09T13:03:57;98029.16;;;20.44;42.00
6094;BME280;19964;42.060;24.700;2023-10-09T13:06:25;98032.66;;;20.29;42.63
6094;BME280;19964;42.060;24.700;2023-10-09T13:08:51;98031.09;;;20.62;42.50
6094;BME280;19964;42.060;24.700;2023-10-09T13:11:19;98030.84;;;20.63;42.94
6094;BME280;19964;42.060;24.700;2023-10-09T13:13:46;98023.13;;;20.72;42.26
6094;BME280;19964;42.060;24.700;2023-10-09T13:16:16;98020.31;;;20.63;42.02
6094;BME280;19964;42.060;24.700;2023-10-09T13:18:48;98014.47;;;20.32;42.26
6094;BME280;19964;42.060;24.700;2023-10-09T13:21:16;98001.59;;;20.31;42.72
6094;BME280;19964;42.060;24.700;2023-10-09T13:23:43;97994.34;;;20.52;42.00
6094;BME280;19964;42.060;24.700;2023-10-09T13:26:12;97984.97;;;20.69;41.98
6094;BME280;19964;42.060;24.700;2023-10-09T13:28:47;97977.22;;;20.83;41.94
6094;BME280;19964;42.060;24.700;2023-10-09T13:31:14;97981.69;;;21.11;42.03
6094;BME280;19964;42.060;24.700;2023-10-09T13:33:44;97986.34;;;21.19;41.66
6094;BME280;19964;42.060;24.700;2023-10-09T13:36:11;97990.28;;;20.64;41.63
6094;BME280;19964;42.060;24.700;2023-10-09T13:38:44;97980.44;;;20.75;42.26